Time;durP1;ratioP1;P1;durP2;ratioP2;P2;SDS_P1;SDS_P2;PMS_P1;PMS_P2;Temp;Humidity;BMP_temperature;BMP_pressure;BME280_temperature;BME280_humidity;BME280_pressure;Samples;Min_cycle;Max_cycle;Signal;HPM_P1;HPM_P2
2024/02/07 00:00:07;;;;;;;6.10;2.38;;;;;;;;;;4957100;28;20390;-83
2024/02/07 00:02:52;;;;;;;3.10;1.77;;;;;;;;;;4969321;28;20034;-84
2024/02/07 00:05:37;;;;;;;4.28;1.98;;;;;;;;;;4955350;28;20019;-84
2024/02/07 00:08:22;;;;;;;5.50;1.88;;;;;;;;;;4961367;28;20023;-83
2024/02/07 00:11:10;;;;;;;5.10;2.08;;;;;;;;;;4972940;28;20026;-84
2024/02/07 00:13:55;;;;;;;2.90;1.65;;;;;;;;;;4970051;28;20057;-83
2024/02/07 00:16:41;;;;;;;5.43;2.03;;;;;;;;;;4950626;28;20044;-83
2024/02/07 00:19:26;;;;;;;5.15;2.30;;;;;;;;;;4959175;28;20099;-84
2024/02/07 00:22:11;;;;;;;9.00;3.08;;;;;;;;;;4949980;29;20058;-82
2024/02/07 00:24:57;;;;;;;7.55;2.47;;;;;;;;;;4949361;28;20066;-83
2024/02/07 00:27:42;;;;;;;4.40;1.90;;;;;;;;;;4950776;28;20192;-83
2024/02/07 00:30:29;;;;;;;7.40;2.10;;;;;;;;;;4937391;28;20041;-83
2024/02/07 00:33:14;;;;;;;5.93;2.13;;;;;;;;;;4960492;28;20035;-84
2024/02/07 00:35:59;;;;;;;4.93;1.90;;;;;;;;;;4955106;28;20042;-82
2024/02/07 00:38:45;;;;;;;5.32;2.33;;;;;;;;;;4936343;28;20039;-81
2024/02/07 00:41:30;;;;;;;4.22;2.22;;;;;;;;;;4968901;28;20416;-81
2024/02/07 00:44:15;;;;;;;5.38;2.72;;;;;;;;;;4951312;28;20027;-82
2024/02/07 00:47:01;;;;;;;2.72;1.95;;;;;;;;;;4948264;28;20469;-82
2024/02/07 00:49:47;;;;;;;9.35;3.13;;;;;;;;;;4955498;28;20097;-85
2024/02/07 00:52:35;;;;;;;5.77;3.03;;;;;;;;;;4954097;28;20026;-84
2024/02/07 00:55:21;;;;;;;7.45;2.38;;;;;;;;;;4963374;28;20030;-86
2024/02/07 00:58:06;;;;;;;4.40;2.13;;;;;;;;;;4955420;28;20038;-84
2024/02/07 01:00:52;;;;;;;4.22;1.83;;;;;;;;;;4959044;28;20027;-84
2024/02/07 01:03:37;;;;;;;5.80;2.22;;;;;;;;;;4950027;28;20104;-85
2024/02/07 01:06:24;;;;;;;3.55;1.90;;;;;;;;;;4944390;28;20048;-84
2024/02/07 01:09:10;;;;;;;4.13;2.05;;;;;;;;;;4969032;28;20128;-84
2024/02/07 01:11:55;;;;;;;6.72;1.90;;;;;;;;;;4954428;28;20027;-85
2024/02/07 01:14:40;;;;;;;5.82;2.20;;;;;;;;;;4949399;28;20031;-85
2024/02/07 01:17:25;;;;;;;5.20;1.88;;;;;;;;;;4962822;28;20050;-84
2024/02/07 01:20:13;;;;;;;4.22;1.75;;;;;;;;;;4962872;28;20114;-85
2024/02/07 01:22:58;;;;;;;9.52;3.05;;;;;;;;;;4948601;28;20022;-85
2024/02/07 01:25:44;;;;;;;7.75;2.45;;;;;;;;;;4955010;28;20117;-85
2024/02/07 01:28:30;;;;;;;4.43;2.05;;;;;;;;;;4958511;28;20058;-83
2024/02/07 01:31:16;;;;;;;5.85;2.25;;;;;;;;;;4962796;28;20052;-84
2024/02/07 01:34:01;;;;;;;6.55;2.47;;;;;;;;;;4966030;28;20033;-86
2024/02/07 01:36:46;;;;;;;5.00;2.30;;;;;;;;;;4961965;28;20042;-85
2024/02/07 01:39:34;;;;;;;3.97;1.85;;;;;;;;;;4953713;28;20804;-86
2024/02/07 01:42:19;;;;;;;8.48;3.15;;;;;;;;;;4961715;28;20027;-84
2024/02/07 01:45:08;;;;;;;6.40;2.30;;;;;;;;;;4967527;28;20031;-84
2024/02/07 01:47:53;;;;;;;4.25;2.03;;;;;;;;;;4952165;28;20482;-84
2024/02/07 01:50:40;;;;;;;6.97;2.33;;;;;;;;;;4934808;28;20371;-85
2024/02/07 01:53:26;;;;;;;6.25;2.10;;;;;;;;;;4935068;29;20030;-85
2024/02/07 01:56:12;;;;;;;4.63;2.58;;;;;;;;;;4944812;28;20034;-84
2024/02/07 01:58:58;;;;;;;4.18;2.15;;;;;;;;;;4959444;28;20092;-85
2024/02/07 02:01:44;;;;;;;7.55;2.58;;;;;;;;;;4957847;28;20040;-82
2024/02/07 02:04:31;;;;;;;9.82;2.92;;;;;;;;;;4935082;29;20035;-85
2024/02/07 02:07:17;;;;;;;4.63;2.10;;;;;;;;;;4943433;28;20039;-84
2024/02/07 02:10:05;;;;;;;6.75;2.13;;;;;;;;;;4963446;28;20081;-85
2024/02/07 02:12:50;;;;;;;6.90;2.67;;;;;;;;;;4963125;28;20073;-84
2024/02/07 02:15:36;;;;;;;7.43;3.22;;;;;;;;;;4924920;28;1087640;-83
2024/02/07 02:18:21;;;;;;;4.32;2.28;;;;;;;;;;4957657;28;20082;-83
2024/02/07 02:21:07;;;;;;;4.80;2.28;;;;;;;;;;4964446;28;20046;-83
2024/02/07 02:24:02;;;;;;;5.43;2.78;;;;;;;;;;4952763;28;20026;-84
2024/02/07 02:26:50;;;;;;;6.63;2.58;;;;;;;;;;4960229;28;20027;-83
2024/02/07 02:29:40;;;;;;;9.18;2.60;;;;;;;;;;4956903;28;20088;-84
2024/02/07 02:32:27;;;;;;;6.55;2.67;;;;;;;;;;4958113;28;20030;-83
2024/02/07 02:35:13;;;;;;;6.47;2.45;;;;;;;;;;4956721;28;20030;-82
2024/02/07 02:37:58;;;;;;;4.13;2.45;;;;;;;;;;4958091;28;20026;-83
2024/02/07 02:40:44;;;;;;;4.47;2.00;;;;;;;;;;4966412;28;20456;-82
2024/02/07 02:43:29;;;;;;;7.85;2.40;;;;;;;;;;4962161;28;20042;-84
2024/02/07 02:46:14;;;;;;;5.47;3.08;;;;;;;;;;4961230;28;20035;-83
2024/02/07 02:49:00;;;;;;;4.75;3.35;;;;;;;;;;4959919;28;20464;-84
2024/02/07 02:51:45;;;;;;;4.10;2.28;;;;;;;;;;4965532;28;20093;-83
2024/02/07 02:54:34;;;;;;;5.10;2.40;;;;;;;;;;4965916;28;20026;-84
2024/02/07 02:57:19;;;;;;;5.40;2.78;;;;;;;;;;4963764;28;20031;-84
2024/02/07 03:00:07;;;;;;;9.82;2.50;;;;;;;;;;4963094;28;20042;-84
2024/02/07 03:02:55;;;;;;;4.72;2.42;;;;;;;;;;4960568;28;20450;-83
2024/02/07 03:08:39;;;;;;;4.20;2.30;;;;;;;;;;4959744;28;20094;-83
2024/02/07 03:11:24;;;;;;;6.22;2.33;;;;;;;;;;4964986;28;20085;-82
2024/02/07 03:14:09;;;;;;;4.25;2.45;;;;;;;;;;4959421;28;20038;-84
2024/02/07 03:16:55;;;;;;;8.75;2.45;;;;;;;;;;4969333;28;20051;-83
2024/02/07 03:19:40;;;;;;;6.63;2.25;;;;;;;;;;4958849;28;20402;-85
2024/02/07 03:22:26;;;;;;;6.35;2.53;;;;;;;;;;4974756;28;20122;-83
2024/02/07 03:25:17;;;;;;;7.55;2.85;;;;;;;;;;4955393;28;20027;-83
2024/02/07 03:28:04;;;;;;;4.97;2.03;;;;;;;;;;4967274;28;20022;-83
2024/02/07 03:30:50;;;;;;;6.95;2.42;;;;;;;;;;4963370;28;20062;-84
2024/02/07 03:33:35;;;;;;;3.90;2.33;;;;;;;;;;4957691;28;20077;-85
2024/02/07 03:36:23;;;;;;;4.57;2.83;;;;;;;;;;4963697;28;20031;-84
2024/02/07 03:39:09;;;;;;;7.43;2.53;;;;;;;;;;4964062;28;20057;-83
2024/02/07 03:41:56;;;;;;;2.97;2.05;;;;;;;;;;4971620;28;20121;-84
2024/02/07 03:44:43;;;;;;;6.22;2.05;;;;;;;;;;4962110;28;20098;-84
2024/02/07 03:47:28;;;;;;;5.18;2.67;;;;;;;;;;4976756;28;20041;-84
2024/02/07 03:50:16;;;;;;;3.75;2.17;;;;;;;;;;4960199;28;20562;-84
2024/02/07 03:53:03;;;;;;;4.25;2.30;;;;;;;;;;4956024;28;20027;-83
2024/02/07 03:55:49;;;;;;;6.15;1.90;;;;;;;;;;4969171;28;20023;-84
2024/02/07 03:58:34;;;;;;;6.55;2.30;;;;;;;;;;4966963;28;20046;-84
2024/02/07 04:01:20;;;;;;;6.47;2.58;;;;;;;;;;4961639;28;20041;-85
2024/02/07 04:04:07;;;;;;;4.88;2.30;;;;;;;;;;4965151;28;20058;-83
2024/02/07 04:06:53;;;;;;;4.25;2.22;;;;;;;;;;4975898;28;20030;-83
2024/02/07 04:09:38;;;;;;;6.47;2.30;;;;;;;;;;4956800;28;20022;-82
2024/02/07 05:16:38;;;;;;;3.75;1.65;;;;;;;;;;4956563;28;20047;-81
2024/02/07 05:19:23;;;;;;;4.30;1.98;;;;;;;;;;4957277;28;20058;-81
2024/02/07 05:22:08;;;;;;;6.30;2.63;;;;;;;;;;4954524;28;20097;-82
2024/02/07 05:24:54;;;;;;;4.63;2.50;;;;;;;;;;4954163;28;20396;-81
2024/02/07 05:27:39;;;;;;;4.90;2.88;;;;;;;;;;4962857;28;20035;-82
2024/02/07 05:30:25;;;;;;;4.93;2.25;;;;;;;;;;4957234;28;20019;-81
2024/02/07 05:33:10;;;;;;;4.85;2.40;;;;;;;;;;4951624;28;20181;-81
2024/02/07 05:35:55;;;;;;;4.72;2.20;;;;;;;;;;4947839;28;20027;-81
2024/02/07 05:38:41;;;;;;;3.42;2.25;;;;;;;;;;4964579;28;20038;-80
2024/02/07 05:41:26;;;;;;;5.15;2.20;;;;;;;;;;4958307;28;20106;-81
2024/02/07 05:44:12;;;;;;;4.10;2.35;;;;;;;;;;4954680;28;20019;-81
2024/02/07 05:46:57;;;;;;;4.53;2.55;;;;;;;;;;4959001;28;20089;-83
2024/02/07 05:49:43;;;;;;;5.30;2.28;;;;;;;;;;4953996;28;20034;-83
2024/02/07 05:52:28;;;;;;;3.67;1.98;;;;;;;;;;4954676;28;20033;-83
2024/02/07 05:55:13;;;;;;;4.82;2.30;;;;;;;;;;4953108;28;20035;-84
2024/02/07 05:57:58;;;;;;;4.57;2.33;;;;;;;;;;4953880;28;20034;-83
2024/02/07 06:00:43;;;;;;;4.97;2.28;;;;;;;;;;4940553;28;20066;-84
2024/02/07 06:03:29;;;;;;;7.25;2.28;;;;;;;;;;4954446;28;20037;-83
2024/02/07 06:06:14;;;;;;;4.80;2.15;;;;;;;;;;4949105;28;20066;-83
2024/02/07 06:08:59;;;;;;;5.40;2.20;;;;;;;;;;4972036;28;20461;-82
2024/02/07 06:11:45;;;;;;;4.90;2.30;;;;;;;;;;4955712;28;20034;-83
2024/02/07 06:14:31;;;;;;;3.60;2.05;;;;;;;;;;4964002;28;20054;-83
2024/02/07 06:17:17;;;;;;;5.97;2.75;;;;;;;;;;4959952;28;20083;-83
2024/02/07 06:20:02;;;;;;;7.60;2.60;;;;;;;;;;4945617;28;20034;-82
2024/02/07 06:22:47;;;;;;;5.18;2.85;;;;;;;;;;4956569;28;20027;-82
2024/02/07 06:25:33;;;;;;;6.82;2.85;;;;;;;;;;4956394;28;20028;-83
2024/02/07 06:28:18;;;;;;;6.53;2.42;;;;;;;;;;4953748;28;20030;-81
2024/02/07 06:31:03;;;;;;;7.32;2.67;;;;;;;;;;4946806;28;20031;-84
2024/02/07 06:33:49;;;;;;;8.23;3.10;;;;;;;;;;4947266;29;20546;-80
2024/02/07 06:36:34;;;;;;;6.47;2.75;;;;;;;;;;4950832;28;20035;-84
2024/02/07 06:39:19;;;;;;;5.13;2.65;;;;;;;;;;4947315;29;20015;-84
2024/02/07 06:42:04;;;;;;;5.60;2.55;;;;;;;;;;4946494;29;20210;-84
2024/02/07 06:44:50;;;;;;;5.35;3.25;;;;;;;;;;4947214;29;20027;-84
2024/02/07 06:47:35;;;;;;;7.05;3.45;;;;;;;;;;4933622;29;20038;-84
2024/02/07 06:50:22;;;;;;;7.13;2.83;;;;;;;;;;4928508;29;20023;-83
2024/02/07 06:53:07;;;;;;;7.00;2.85;;;;;;;;;;4928270;29;20076;-83
2024/02/07 06:55:53;;;;;;;3.97;2.40;;;;;;;;;;4933076;29;20034;-83
2024/02/07 06:58:38;;;;;;;8.40;3.08;;;;;;;;;;4947634;29;20029;-83
2024/02/07 07:01:24;;;;;;;7.30;2.75;;;;;;;;;;4946705;28;20142;-87
2024/02/07 07:04:09;;;;;;;6.75;2.95;;;;;;;;;;4947030;29;20027;-83
2024/02/07 07:06:54;;;;;;;5.97;2.90;;;;;;;;;;4946783;29;20031;-86
2024/02/07 07:09:40;;;;;;;5.13;2.80;;;;;;;;;;4947425;29;20235;-85
2024/02/07 07:12:25;;;;;;;6.43;2.60;;;;;;;;;;4946303;29;20118;-83
2024/02/07 07:15:13;;;;;;;9.13;2.50;;;;;;;;;;4948203;28;20304;-85
2024/02/07 07:17:59;;;;;;;7.85;2.47;;;;;;;;;;4953414;28;20386;-81
2024/02/07 07:20:44;;;;;;;7.85;3.13;;;;;;;;;;4952314;28;20031;-82
2024/02/07 07:23:29;;;;;;;7.13;2.72;;;;;;;;;;4952885;28;20509;-84
2024/02/07 07:26:14;;;;;;;5.07;2.70;;;;;;;;;;4952983;28;20023;-83
2024/02/07 07:29:00;;;;;;;7.22;2.72;;;;;;;;;;4956657;28;20031;-85
2024/02/07 07:31:45;;;;;;;3.80;2.15;;;;;;;;;;4956209;28;20073;-83
2024/02/07 07:34:30;;;;;;;6.72;3.55;;;;;;;;;;4955920;28;20473;-83
2024/02/07 07:37:18;;;;;;;11.25;3.25;;;;;;;;;;4955298;28;20456;-84
2024/02/07 07:40:04;;;;;;;6.57;3.00;;;;;;;;;;4956443;28;20346;-84
2024/02/07 07:42:50;;;;;;;5.90;3.25;;;;;;;;;;4955125;28;20035;-83
2024/02/07 07:45:35;;;;;;;9.20;2.70;;;;;;;;;;4955729;28;20385;-83
2024/02/07 07:48:20;;;;;;;4.38;3.47;;;;;;;;;;4955779;28;20528;-83
2024/02/07 07:51:06;;;;;;;10.18;3.35;;;;;;;;;;4949817;29;20450;-83
2024/02/07 07:53:51;;;;;;;6.57;3.10;;;;;;;;;;4950036;29;20100;-83
2024/02/07 07:56:36;;;;;;;6.47;2.72;;;;;;;;;;4939534;28;20137;-84
2024/02/07 07:59:22;;;;;;;5.13;2.95;;;;;;;;;;4955649;28;20033;-84
2024/02/07 08:02:07;;;;;;;6.05;2.70;;;;;;;;;;4954582;28;20023;-84
2024/02/07 08:04:52;;;;;;;3.83;2.30;;;;;;;;;;4942653;28;20045;-83
2024/02/07 08:07:38;;;;;;;6.63;2.97;;;;;;;;;;4956091;28;20034;-84
2024/02/07 08:10:23;;;;;;;8.38;3.47;;;;;;;;;;4956206;28;20027;-84
2024/02/07 08:13:09;;;;;;;10.98;3.78;;;;;;;;;;4941766;28;20022;-81
2024/02/07 08:15:55;;;;;;;11.55;3.22;;;;;;;;;;4955492;28;20050;-85
2024/02/07 08:18:41;;;;;;;5.57;2.90;;;;;;;;;;4952449;28;20054;-85
2024/02/07 08:21:26;;;;;;;12.50;3.75;;;;;;;;;;4955366;28;20030;-84
2024/02/07 08:24:12;;;;;;;7.22;2.85;;;;;;;;;;4954785;28;20029;-84
2024/02/07 08:26:57;;;;;;;7.35;2.75;;;;;;;;;;4954611;28;20093;-84
2024/02/07 08:30:09;;;;;;;7.78;3.20;;;;;;;;;;4954814;28;20019;-86
2024/02/07 08:32:55;;;;;;;5.85;2.72;;;;;;;;;;4954686;28;20031;-85
2024/02/07 08:35:41;;;;;;;5.00;2.50;;;;;;;;;;4954185;28;20026;-85
2024/02/07 08:38:26;;;;;;;10.30;2.75;;;;;;;;;;4954297;28;20058;-85
2024/02/07 08:41:11;;;;;;;9.10;2.83;;;;;;;;;;4955294;28;20384;-82
2024/02/07 08:43:57;;;;;;;7.30;2.60;;;;;;;;;;4953771;28;20393;-82
2024/02/07 08:46:43;;;;;;;5.50;2.97;;;;;;;;;;4955204;28;20068;-84
2024/02/07 08:49:28;;;;;;;8.32;2.88;;;;;;;;;;4949387;28;20038;-84
2024/02/07 08:52:14;;;;;;;2.72;1.92;;;;;;;;;;4947330;28;20031;-84
2024/02/07 08:54:59;;;;;;;7.18;2.78;;;;;;;;;;4954484;28;20093;-83
2024/02/07 08:57:45;;;;;;;7.47;2.92;;;;;;;;;;4953389;28;20072;-82
2024/02/07 09:00:30;;;;;;;6.10;2.40;;;;;;;;;;4954841;28;20103;-82
2024/02/07 09:03:16;;;;;;;5.32;2.95;;;;;;;;;;4957663;28;20027;-83
2024/02/07 09:06:02;;;;;;;5.53;2.72;;;;;;;;;;4954717;28;20089;-84
2024/02/07 09:08:47;;;;;;;8.27;2.67;;;;;;;;;;4952076;28;20085;-82
2024/02/07 09:11:33;;;;;;;7.68;3.03;;;;;;;;;;4954430;28;20113;-81
2024/02/07 09:14:18;;;;;;;14.45;4.80;;;;;;;;;;4953498;28;20123;-82
2024/02/07 09:17:03;;;;;;;5.72;2.55;;;;;;;;;;4954227;28;20042;-82
2024/02/07 09:19:49;;;;;;;5.63;2.50;;;;;;;;;;4954186;28;20027;-82
2024/02/07 09:22:34;;;;;;;6.07;3.00;;;;;;;;;;4948168;29;20122;-83
2024/02/07 09:25:20;;;;;;;5.60;3.60;;;;;;;;;;4935489;29;20058;-83
2024/02/07 09:28:05;;;;;;;9.07;3.40;;;;;;;;;;4953248;28;20030;-84
2024/02/07 09:30:50;;;;;;;5.18;3.03;;;;;;;;;;4953801;28;20023;-83
2024/02/07 09:33:36;;;;;;;11.88;4.43;;;;;;;;;;4954314;28;20120;-85
2024/02/07 09:36:21;;;;;;;7.22;3.15;;;;;;;;;;4954448;28;20145;-84
2024/02/07 09:39:06;;;;;;;10.75;3.45;;;;;;;;;;4953181;28;20022;-83
2024/02/07 09:41:54;;;;;;;9.85;2.95;;;;;;;;;;4954040;28;20472;-83
2024/02/07 09:44:40;;;;;;;7.28;2.83;;;;;;;;;;4952676;28;20031;-84
2024/02/07 09:47:25;;;;;;;6.00;2.92;;;;;;;;;;4953805;28;20023;-85
2024/02/07 09:50:11;;;;;;;5.38;2.55;;;;;;;;;;4953674;28;20022;-84
2024/02/07 09:52:56;;;;;;;14.38;3.28;;;;;;;;;;4952803;28;20038;-84
2024/02/07 09:55:42;;;;;;;8.63;3.30;;;;;;;;;;4953517;28;20486;-83
2024/02/07 09:58:27;;;;;;;6.47;3.08;;;;;;;;;;4952910;28;20072;-83
2024/02/07 10:01:13;;;;;;;9.02;3.13;;;;;;;;;;4953600;28;20113;-83
2024/02/07 10:04:00;;;;;;;6.15;2.80;;;;;;;;;;4952103;28;20579;-83
2024/02/07 10:06:45;;;;;;;5.50;2.83;;;;;;;;;;4953437;28;20023;-84
2024/02/07 10:09:31;;;;;;;7.78;2.97;;;;;;;;;;4953569;28;20027;-84
2024/02/07 10:12:17;;;;;;;7.75;3.03;;;;;;;;;;4954107;28;20026;-84
2024/02/07 10:15:05;;;;;;;8.85;3.20;;;;;;;;;;4952074;28;20074;-84
2024/02/07 10:17:50;;;;;;;7.90;3.10;;;;;;;;;;4953070;28;20358;-82
2024/02/07 10:20:36;;;;;;;8.10;2.83;;;;;;;;;;4953498;28;20030;-82
2024/02/07 10:23:22;;;;;;;7.05;3.80;;;;;;;;;;4940037;28;20069;-83
2024/02/07 10:26:13;;;;;;;7.30;2.70;;;;;;;;;;4947937;29;20091;-83
2024/02/07 10:29:05;;;;;;;2.90;1.95;;;;;;;;;;4925450;28;20066;-83
2024/02/07 10:31:54;;;;;;;8.10;2.92;;;;;;;;;;4953551;28;20031;-82
2024/02/07 10:34:39;;;;;;;6.87;2.33;;;;;;;;;;4953125;28;20031;-83
2024/02/07 10:37:24;;;;;;;7.28;2.47;;;;;;;;;;4951663;28;20624;-84
2024/02/07 10:40:13;;;;;;;8.55;3.28;;;;;;;;;;4933973;29;20034;-84
2024/02/07 10:42:59;;;;;;;4.07;2.25;;;;;;;;;;4934354;29;20127;-84
2024/02/07 10:45:45;;;;;;;7.40;2.83;;;;;;;;;;4950914;28;20501;-83
2024/02/07 10:48:30;;;;;;;4.93;2.47;;;;;;;;;;4953094;28;20134;-82
2024/02/07 10:51:17;;;;;;;4.03;2.40;;;;;;;;;;4953038;28;20025;-85
2024/02/07 10:54:09;;;;;;;5.25;2.35;;;;;;;;;;4952261;28;20031;-85
2024/02/07 10:56:56;;;;;;;7.80;2.75;;;;;;;;;;4953174;28;20027;-84
2024/02/07 10:59:45;;;;;;;5.38;2.42;;;;;;;;;;4952012;28;20067;-84
2024/02/07 11:02:32;;;;;;;6.95;2.28;;;;;;;;;;4956463;28;20110;-83
2024/02/07 11:05:18;;;;;;;6.65;2.58;;;;;;;;;;4957017;28;20030;-85
2024/02/07 11:08:04;;;;;;;7.32;2.55;;;;;;;;;;4957310;28;20026;-84
2024/02/07 11:10:51;;;;;;;3.58;2.08;;;;;;;;;;4956173;28;20027;-83
2024/02/07 11:13:37;;;;;;;9.07;2.30;;;;;;;;;;4957445;28;20027;-85
2024/02/07 11:16:23;;;;;;;4.20;2.25;;;;;;;;;;4956473;28;20047;-84
2024/02/07 11:19:08;;;;;;;5.53;3.03;;;;;;;;;;4956578;28;20045;-84
2024/02/07 11:21:54;;;;;;;4.05;2.28;;;;;;;;;;4956050;28;20502;-85
2024/02/07 11:24:40;;;;;;;6.43;2.20;;;;;;;;;;4956954;28;20031;-84
2024/02/07 11:27:28;;;;;;;6.25;2.60;;;;;;;;;;4956943;28;20093;-84
2024/02/07 11:30:17;;;;;;;7.88;3.45;;;;;;;;;;4956294;28;20027;-83
2024/02/07 11:33:03;;;;;;;6.22;2.45;;;;;;;;;;4955697;28;20034;-84
2024/02/07 11:35:48;;;;;;;7.28;2.45;;;;;;;;;;4956037;28;20073;-84
2024/02/07 11:38:37;;;;;;;4.68;2.42;;;;;;;;;;4956551;28;20089;-84
2024/02/07 11:41:22;;;;;;;9.15;3.03;;;;;;;;;;4955742;28;20069;-84
2024/02/07 11:44:11;;;;;;;4.03;2.10;;;;;;;;;;4956719;28;20110;-84
2024/02/07 11:46:57;;;;;;;2.47;2.05;;;;;;;;;;4956845;28;20030;-83
2024/02/07 11:49:45;;;;;;;5.78;2.00;;;;;;;;;;4955857;28;20039;-83
2024/02/07 11:52:34;;;;;;;4.50;1.90;;;;;;;;;;4955031;28;20049;-83
2024/02/07 11:55:19;;;;;;;7.45;2.08;;;;;;;;;;4956484;28;20034;-83
2024/02/07 11:58:06;;;;;;;4.10;1.85;;;;;;;;;;4957032;28;20031;-83
2024/02/07 12:00:52;;;;;;;5.32;2.10;;;;;;;;;;4954994;28;20082;-84
2024/02/07 12:03:40;;;;;;;5.40;1.83;;;;;;;;;;4955567;28;20031;-84
2024/02/07 12:06:25;;;;;;;4.47;1.67;;;;;;;;;;4954577;28;20125;-83
2024/02/07 12:09:10;;;;;;;3.20;1.95;;;;;;;;;;4955344;28;20027;-83
2024/02/07 12:11:57;;;;;;;2.80;2.17;;;;;;;;;;4955232;28;20023;-83
2024/02/07 12:14:42;;;;;;;5.45;2.05;;;;;;;;;;4955546;28;20073;-81
2024/02/07 12:17:28;;;;;;;6.95;2.05;;;;;;;;;;4942211;28;20047;-83
2024/02/07 12:20:13;;;;;;;2.65;1.50;;;;;;;;;;4955578;28;20029;-83
2024/02/07 12:23:01;;;;;;;12.50;2.53;;;;;;;;;;4966641;28;20023;-84
2024/02/07 12:25:59;;;;;;;2.17;1.30;;;;;;;;;;4972070;28;20035;-83
2024/02/07 12:28:45;;;;;;;7.43;1.50;;;;;;;;;;4973538;28;20042;-83
2024/02/07 12:31:30;;;;;;;4.50;1.73;;;;;;;;;;4976999;28;20039;-83
2024/02/07 12:34:23;;;;;;;3.80;1.80;;;;;;;;;;4977865;28;20090;-84
2024/02/07 12:37:09;;;;;;;1.95;1.35;;;;;;;;;;4972841;28;20102;-83
2024/02/07 12:39:54;;;;;;;6.03;1.67;;;;;;;;;;4961303;28;20031;-83
2024/02/07 12:42:39;;;;;;;3.38;1.42;;;;;;;;;;4956165;28;20033;-82
2024/02/07 12:45:25;;;;;;;2.30;1.48;;;;;;;;;;4955252;28;20031;-83
2024/02/07 12:48:10;;;;;;;9.30;1.95;;;;;;;;;;4936384;29;20031;-83
2024/02/07 12:50:56;;;;;;;5.03;1.23;;;;;;;;;;4942732;28;20050;-82
2024/02/07 12:53:42;;;;;;;3.03;1.50;;;;;;;;;;4970309;28;20090;-83
2024/02/07 12:56:27;;;;;;;2.88;1.60;;;;;;;;;;4950911;28;20037;-82
2024/02/07 12:59:13;;;;;;;6.88;1.85;;;;;;;;;;4955045;28;20026;-82
2024/02/07 13:02:02;;;;;;;7.80;2.00;;;;;;;;;;4963877;28;20034;-83
2024/02/07 13:04:47;;;;;;;4.72;1.88;;;;;;;;;;4962780;28;20400;-82
2024/02/07 13:07:32;;;;;;;4.13;2.03;;;;;;;;;;4949900;28;20030;-82
2024/02/07 13:10:18;;;;;;;2.72;1.83;;;;;;;;;;4950668;28;20023;-82
2024/02/07 13:13:04;;;;;;;4.05;1.80;;;;;;;;;;4952118;28;20105;-83
2024/02/07 13:15:53;;;;;;;4.90;1.52;;;;;;;;;;4953080;28;20061;-83
2024/02/07 13:18:39;;;;;;;3.90;2.22;;;;;;;;;;4954258;28;20093;-84
2024/02/07 13:21:24;;;;;;;3.97;1.90;;;;;;;;;;4954274;28;20027;-83
2024/02/07 13:24:19;;;;;;;4.45;1.80;;;;;;;;;;4939530;28;20023;-83
2024/02/07 13:27:05;;;;;;;6.85;2.10;;;;;;;;;;4954695;28;20133;-83
2024/02/07 13:29:50;;;;;;;5.88;1.65;;;;;;;;;;4954271;28;20037;-85
2024/02/07 13:32:35;;;;;;;4.70;1.90;;;;;;;;;;4952499;28;20125;-84
2024/02/07 13:35:21;;;;;;;1.60;1.15;;;;;;;;;;4954277;28;20038;-84
2024/02/07 13:38:06;;;;;;;2.42;1.50;;;;;;;;;;4953448;28;20041;-82
2024/02/07 13:40:51;;;;;;;3.13;1.70;;;;;;;;;;4954040;28;20058;-84
2024/02/07 13:43:37;;;;;;;4.07;1.98;;;;;;;;;;4954278;28;20066;-83
2024/02/07 13:46:22;;;;;;;3.45;1.60;;;;;;;;;;4952928;28;20023;-83
2024/02/07 13:49:09;;;;;;;3.35;1.90;;;;;;;;;;4954035;28;20512;-84
2024/02/07 13:51:55;;;;;;;14.50;3.08;;;;;;;;;;4953678;28;20073;-84
2024/02/07 13:54:42;;;;;;;3.92;1.60;;;;;;;;;;4953308;28;20023;-83
2024/02/07 13:57:28;;;;;;;4.40;1.60;;;;;;;;;;4952928;28;20037;-81
2024/02/07 14:00:15;;;;;;;2.42;1.55;;;;;;;;;;4953749;28;20031;-83
2024/02/07 14:03:00;;;;;;;2.83;1.55;;;;;;;;;;4952491;28;20382;-84
2024/02/07 14:05:46;;;;;;;2.53;1.38;;;;;;;;;;4953348;28;20494;-82
2024/02/07 14:08:31;;;;;;;2.83;1.25;;;;;;;;;;4953691;28;20085;-83
2024/02/07 14:11:17;;;;;;;3.42;1.55;;;;;;;;;;4953038;28;20039;-84
2024/02/07 14:14:02;;;;;;;3.60;1.73;;;;;;;;;;4953708;28;20113;-83
2024/02/07 14:16:47;;;;;;;9.48;2.58;;;;;;;;;;4952250;28;20039;-84
2024/02/07 14:19:32;;;;;;;2.85;1.58;;;;;;;;;;4953410;28;20031;-83
2024/02/07 14:22:18;;;;;;;1.85;1.33;;;;;;;;;;4953314;28;20027;-83
2024/02/07 14:25:10;;;;;;;19.08;3.13;;;;;;;;;;4953048;28;20022;-83
2024/02/07 14:27:55;;;;;;;1.67;1.20;;;;;;;;;;4952621;28;20022;-84
2024/02/07 14:30:41;;;;;;;3.13;1.38;;;;;;;;;;4953362;28;20054;-84
2024/02/07 14:33:26;;;;;;;2.75;1.23;;;;;;;;;;4953257;28;20117;-89
2024/02/07 14:36:11;;;;;;;2.08;1.40;;;;;;;;;;4957337;28;20022;-88
2024/02/07 14:38:56;;;;;;;1.77;1.10;;;;;;;;;;4957719;28;20026;-87
2024/02/07 14:41:42;;;;;;;2.15;1.23;;;;;;;;;;4956885;28;20031;-84
2024/02/07 14:44:28;;;;;;;3.13;1.15;;;;;;;;;;4957856;28;20050;-87
2024/02/07 14:47:15;;;;;;;3.15;1.55;;;;;;;;;;4943410;28;20054;-88
2024/02/07 14:50:00;;;;;;;2.95;1.40;;;;;;;;;;4957796;28;20513;-83
2024/02/07 14:52:45;;;;;;;1.52;1.08;;;;;;;;;;4956929;28;20030;-85
2024/02/07 14:55:34;;;;;;;2.17;1.00;;;;;;;;;;4956720;28;20045;-84
2024/02/07 14:58:19;;;;;;;2.58;1.45;;;;;;;;;;4957829;28;20081;-83
2024/02/07 15:01:07;;;;;;;2.45;1.20;;;;;;;;;;4956755;28;20022;-82
2024/02/07 15:03:55;;;;;;;4.03;1.63;;;;;;;;;;4956018;28;20370;-83
2024/02/07 15:06:41;;;;;;;3.17;1.45;;;;;;;;;;4956847;28;20046;-83
2024/02/07 15:09:27;;;;;;;2.28;1.45;;;;;;;;;;4956786;28;20029;-83
2024/02/07 15:12:12;;;;;;;1.33;1.20;;;;;;;;;;4956837;28;20022;-83
2024/02/07 15:14:58;;;;;;;1.80;1.10;;;;;;;;;;4955550;28;20112;-84
2024/02/07 15:17:44;;;;;;;1.95;1.20;;;;;;;;;;4955071;28;20425;-83
2024/02/07 15:20:29;;;;;;;2.92;1.50;;;;;;;;;;4956327;28;20031;-83
2024/02/07 15:23:16;;;;;;;3.53;1.50;;;;;;;;;;4956242;28;20034;-83
2024/02/07 15:26:01;;;;;;;1.60;1.50;;;;;;;;;;4955653;28;20022;-83
2024/02/07 15:28:47;;;;;;;2.90;1.58;;;;;;;;;;4956164;28;20053;-83
2024/02/07 15:31:32;;;;;;;2.90;1.45;;;;;;;;;;4956655;28;20975;-82
2024/02/07 15:34:17;;;;;;;3.20;1.40;;;;;;;;;;4955226;28;20076;-83
2024/02/07 15:37:03;;;;;;;4.88;1.58;;;;;;;;;;4956163;28;20183;-83
2024/02/07 15:39:48;;;;;;;3.20;1.60;;;;;;;;;;4956200;28;20019;-83
2024/02/07 15:42:33;;;;;;;2.53;1.67;;;;;;;;;;4956089;28;20045;-84
2024/02/07 15:45:18;;;;;;;6.38;1.63;;;;;;;;;;4954665;28;20464;-82
2024/02/07 15:48:04;;;;;;;3.55;2.03;;;;;;;;;;4953789;28;20065;-83
2024/02/07 15:50:49;;;;;;;3.22;1.65;;;;;;;;;;4937084;29;20716;-81
2024/02/07 15:53:36;;;;;;;4.30;1.80;;;;;;;;;;4936775;29;20034;-83
2024/02/07 15:56:21;;;;;;;5.07;2.17;;;;;;;;;;4954787;28;20023;-83
2024/02/07 15:59:07;;;;;;;3.08;1.70;;;;;;;;;;4955523;28;20045;-83
2024/02/07 16:01:52;;;;;;;3.03;1.35;;;;;;;;;;4955443;28;20034;-81
2024/02/07 16:04:37;;;;;;;3.45;2.13;;;;;;;;;;4948576;29;20103;-83
2024/02/07 16:07:23;;;;;;;3.28;2.03;;;;;;;;;;4936584;29;20062;-83
2024/02/07 16:10:08;;;;;;;4.75;1.67;;;;;;;;;;4936188;29;20023;-84
2024/02/07 16:12:54;;;;;;;4.85;2.05;;;;;;;;;;4936331;29;20046;-84
2024/02/07 16:15:39;;;;;;;1.55;1.27;;;;;;;;;;4949081;28;20524;-83
2024/02/07 16:18:25;;;;;;;5.97;2.22;;;;;;;;;;4955536;28;20048;-83
2024/02/07 16:21:10;;;;;;;4.70;2.20;;;;;;;;;;4954989;28;20093;-83
2024/02/07 16:23:55;;;;;;;3.58;2.03;;;;;;;;;;4955494;28;20034;-82
2024/02/07 16:26:41;;;;;;;3.78;2.17;;;;;;;;;;4954327;28;20042;-82
2024/02/07 16:29:26;;;;;;;3.70;2.00;;;;;;;;;;4949156;29;20043;-83
2024/02/07 16:32:11;;;;;;;5.32;2.10;;;;;;;;;;4948137;28;20097;-83
2024/02/07 16:34:56;;;;;;;7.82;2.10;;;;;;;;;;4954273;28;20035;-82
2024/02/07 16:37:42;;;;;;;6.82;2.38;;;;;;;;;;4955195;28;20532;-82
2024/02/07 16:40:28;;;;;;;6.38;2.45;;;;;;;;;;4954005;28;20035;-82
2024/02/07 16:43:14;;;;;;;4.13;1.83;;;;;;;;;;4954781;28;20038;-82
2024/02/07 16:45:59;;;;;;;5.90;2.30;;;;;;;;;;4955275;28;20037;-82
2024/02/07 16:48:44;;;;;;;5.68;2.15;;;;;;;;;;4954989;28;20470;-83
2024/02/07 16:51:30;;;;;;;3.30;2.30;;;;;;;;;;4954950;28;20026;-82
2024/02/07 16:54:19;;;;;;;2.88;1.80;;;;;;;;;;4954933;28;20386;-82
2024/02/07 16:57:04;;;;;;;6.70;2.42;;;;;;;;;;4955451;28;20034;-81
2024/02/07 16:59:56;;;;;;;5.00;2.30;;;;;;;;;;4952479;28;20038;-84
2024/02/07 17:07:00;;;;;;;3.50;1.90;;;;;;;;;;4934390;29;20041;-86
2024/02/07 17:09:45;;;;;;;3.78;2.50;;;;;;;;;;4878024;29;20031;-84
2024/02/07 17:12:35;;;;;;;5.95;2.55;;;;;;;;;;4932885;29;20031;-83
2024/02/07 17:15:24;;;;;;;4.63;2.72;;;;;;;;;;4953980;28;20031;-83
2024/02/07 17:18:09;;;;;;;7.57;2.28;;;;;;;;;;4957445;28;20405;-84
2024/02/07 17:20:55;;;;;;;7.18;2.90;;;;;;;;;;4955305;28;20031;-82
2024/02/07 17:23:40;;;;;;;4.53;2.05;;;;;;;;;;4959390;28;20038;-83
2024/02/07 17:26:25;;;;;;;5.45;2.40;;;;;;;;;;4957586;28;20110;-83
2024/02/07 17:29:10;;;;;;;4.80;3.42;;;;;;;;;;4935049;29;20090;-84
2024/02/07 17:31:58;;;;;;;4.60;2.40;;;;;;;;;;4946890;28;20031;-83
2024/02/07 17:34:44;;;;;;;9.63;2.58;;;;;;;;;;4952362;28;20049;-83
2024/02/07 17:37:30;;;;;;;5.30;2.67;;;;;;;;;;4955571;28;20114;-84
2024/02/07 17:40:15;;;;;;;2.72;1.92;;;;;;;;;;4954894;28;20103;-84
2024/02/07 17:43:01;;;;;;;3.45;2.22;;;;;;;;;;4952628;28;20102;-82
2024/02/07 17:45:46;;;;;;;5.45;2.38;;;;;;;;;;4952901;28;20034;-81